sensor_id;sensor_type;location;lat;lon;timestamp;pressure;altitude;pressure_sealevel;temperature;humidity
58879;BME280;44660;42.664;23.266;2023-04-01T00:01:04;93650.44;;;11.75;51.01
58879;BME280;44660;42.664;23.266;2023-04-01T00:03:31;93660.28;;;11.75;51.07
58879;BME280;44660;42.664;23.266;2023-04-01T00:05:58;93629.19;;;11.55;51.65
58879;BME280;44660;42.664;23.266;2023-04-01T00:08:26;93667.50;;;11.74;51.55
58879;BME280;44660;42.664;23.266;2023-04-01T00:10:52;93667.50;;;11.74;51.71
58879;BME280;44660;42.664;23.266;2023-04-01T00:13:18;93616.44;;;11.47;51.49
58879;BME280;44660;42.664;23.266;2023-04-01T00:15:43;93632.38;;;11.57;51.52
58879;BME280;44660;42.664;23.266;2023-04-01T00:18:09;93678.38;;;11.88;51.42
58879;BME280;44660;42.664;23.266;2023-04-01T00:20:35;93665.34;;;11.71;51.80
58879;BME280;44660;42.664;23.266;2023-04-01T00:23:01;93641.97;;;11.63;51.91
58879;BME280;44660;42.664;23.266;2023-04-01T00:25:26;93678.91;;;11.85;51.89
58879;BME280;44660;42.664;23.266;2023-04-01T00:27:52;93662.38;;;11.83;52.08
58879;BME280;44660;42.664;23.266;2023-04-01T00:30:18;93675.44;;;11.85;52.11
58879;BME280;44660;42.664;23.266;2023-04-01T00:32:43;93675.44;;;11.85;52.27
58879;BME280;44660;42.664;23.266;2023-04-01T00:35:09;93647.00;;;11.70;52.26
58879;BME280;44660;42.664;23.266;2023-04-01T00:37:36;93641.47;;;11.40;53.25
58879;BME280;44660;42.664;23.266;2023-04-01T00:40:03;93624.47;;;11.16;53.82
58879;BME280;44660;42.664;23.266;2023-04-01T00:42:30;93648.16;;;11.22;54.61
58879;BME280;44660;42.664;23.266;2023-04-01T00:44:56;93649.19;;;11.37;54.30
58879;BME280;44660;42.664;23.266;2023-04-01T00:47:23;93599.50;;;11.01;54.35
58879;BME280;44660;42.664;23.266;2023-04-01T00:49:51;93651.34;;;11.14;54.71
58879;BME280;44660;42.664;23.266;2023-04-01T00:52:20;93616.81;;;10.88;54.99
58879;BME280;44660;42.664;23.266;2023-04-01T00:54:50;93645.75;;;11.16;54.62
58879;BME280;44660;42.664;23.266;2023-04-01T00:57:32;93640.44;;;11.16;54.45
58879;BME280;44660;42.664;23.266;2023-04-01T01:00:06;93634.06;;;11.17;54.54
58879;BME280;44660;42.664;23.266;2023-04-01T01:02:34;93613.31;;;11.14;54.24
58879;BME280;44660;42.664;23.266;2023-04-01T01:05:00;93598.44;;;11.07;54.06
58879;BME280;44660;42.664;23.266;2023-04-01T01:07:45;93549.00;;;10.75;54.14
58879;BME280;44660;42.664;23.266;2023-04-01T01:10:26;93605.88;;;11.10;54.34
58879;BME280;44660;42.664;23.266;2023-04-01T01:16:00;93587.78;;;10.87;54.07
58879;BME280;44660;42.664;23.266;2023-04-01T01:32:53;93554.84;;;10.67;54.30
58879;BME280;44660;42.664;23.266;2023-04-01T01:35:16;93579.31;;;10.74;54.49
58879;BME280;44660;42.664;23.266;2023-04-01T01:37:46;93575.56;;;10.65;53.73
58879;BME280;44660;42.664;23.266;2023-04-01T01:40:13;93588.34;;;10.73;53.44
58879;BME280;44660;42.664;23.266;2023-04-01T01:42:44;93581.97;;;10.80;53.16
58879;BME280;44660;42.664;23.266;2023-04-01T01:45:12;93584.09;;;10.57;53.28
58879;BME280;44660;42.664;23.266;2023-04-01T01:47:43;93592.06;;;10.72;52.95
58879;BME280;44660;42.664;23.266;2023-04-01T01:50:09;93571.84;;;10.71;53.14
58879;BME280;44660;42.664;23.266;2023-04-01T01:52:36;93542.34;;;10.57;53.34
58879;BME280;44660;42.664;23.266;2023-04-01T01:55:01;93561.75;;;10.73;53.35
58879;BME280;44660;42.664;23.266;2023-04-01T01:57:33;93547.69;;;10.78;53.74
58879;BME280;44660;42.664;23.266;2023-04-01T02:00:07;93562.28;;;10.91;52.95
58879;BME280;44660;42.664;23.266;2023-04-01T02:02:40;93572.34;;;11.09;51.98
58879;BME280;44660;42.664;23.266;2023-04-01T02:05:09;93539.38;;;11.00;51.40
58879;BME280;44660;42.664;23.266;2023-04-01T02:07:37;93547.31;;;11.16;51.11
58879;BME280;44660;42.664;23.266;2023-04-01T02:10:04;93513.34;;;10.76;51.24
58879;BME280;44660;42.664;23.266;2023-04-01T02:12:30;93541.25;;;11.00;50.78
58879;BME280;44660;42.664;23.266;2023-04-01T02:15:04;93547.91;;;11.02;51.04
58879;BME280;44660;42.664;23.266;2023-04-01T02:17:32;93547.88;;;11.13;50.51
58879;BME280;44660;42.664;23.266;2023-04-01T02:20:02;93522.31;;;11.17;50.45
58879;BME280;44660;42.664;23.266;2023-04-01T02:22:32;93544.34;;;11.38;50.41
58879;BME280;44660;42.664;23.266;2023-04-01T02:25:04;93560.03;;;11.39;50.53
58879;BME280;44660;42.664;23.266;2023-04-01T02:27:31;93559.47;;;11.42;49.95
58879;BME280;44660;42.664;23.266;2023-04-01T02:29:58;93565.88;;;11.47;49.87
58879;BME280;44660;42.664;23.266;2023-04-01T02:32:24;93546.50;;;11.31;50.16
58879;BME280;44660;42.664;23.266;2023-04-01T02:34:50;93556.81;;;11.42;50.15
58879;BME280;44660;42.664;23.266;2023-04-01T02:37:16;93530.25;;;11.32;50.03
58879;BME280;44660;42.664;23.266;2023-04-01T02:39:42;93536.94;;;11.24;50.29
58879;BME280;44660;42.664;23.266;2023-04-01T02:42:08;93549.91;;;11.36;50.59
58879;BME280;44660;42.664;23.266;2023-04-01T02:44:34;93557.63;;;11.43;50.79
58879;BME280;44660;42.664;23.266;2023-04-01T02:47:00;93530.28;;;11.22;50.64
58879;BME280;44660;42.664;23.266;2023-04-01T02:49:26;93556.59;;;11.39;49.93
58879;BME280;44660;42.664;23.266;2023-04-01T02:51:51;93549.41;;;11.34;49.19
58879;BME280;44660;42.664;23.266;2023-04-01T02:54:17;93574.94;;;11.40;49.66
58879;BME280;44660;42.664;23.266;2023-04-01T02:56:43;93565.38;;;11.29;49.78
58879;BME280;44660;42.664;23.266;2023-04-01T02:59:08;93580.00;;;11.42;49.76
58879;BME280;44660;42.664;23.266;2023-04-01T03:01:34;93584.75;;;11.50;49.65
58879;BME280;44660;42.664;23.266;2023-04-01T03:03:59;93539.28;;;11.31;50.11
58879;BME280;44660;42.664;23.266;2023-04-01T03:06:25;93582.34;;;11.49;50.25
58879;BME280;44660;42.664;23.266;2023-04-01T03:08:50;93574.66;;;11.47;50.42
58879;BME280;44660;42.664;23.266;2023-04-01T03:11:16;93592.44;;;11.62;49.98
58879;BME280;44660;42.664;23.266;2023-04-01T03:13:41;93551.25;;;11.34;50.11
58879;BME280;44660;42.664;23.266;2023-04-01T03:16:07;93571.72;;;11.49;50.44
58879;BME280;44660;42.664;23.266;2023-04-01T03:18:32;93593.53;;;11.56;51.03
58879;BME280;44660;42.664;23.266;2023-04-01T03:21:21;93608.41;;;11.62;51.01
58879;BME280;44660;42.664;23.266;2023-04-01T03:23:47;93593.38;;;11.01;54.15
58879;BME280;44660;42.664;23.266;2023-04-01T03:26:13;93580.91;;;10.86;53.32
58879;BME280;44660;42.664;23.266;2023-04-01T03:28:39;93568.38;;;10.91;52.55
58879;BME280;44660;42.664;23.266;2023-04-01T03:31:05;93575.56;;;11.01;53.02
58879;BME280;44660;42.664;23.266;2023-04-01T03:33:31;93579.25;;;11.16;52.47
58879;BME280;44660;42.664;23.266;2023-04-01T03:35:56;93584.28;;;11.27;52.17
58879;BME280;44660;42.664;23.266;2023-04-01T03:38:22;93577.09;;;11.33;52.36
58879;BME280;44660;42.664;23.266;2023-04-01T03:40:47;93553.13;;;11.33;53.24
58879;BME280;44660;42.664;23.266;2023-04-01T03:43:13;93550.94;;;11.51;53.29
58879;BME280;44660;42.664;23.266;2023-04-01T03:45:49;93537.63;;;11.51;54.98
58879;BME280;44660;42.664;23.266;2023-04-01T03:48:15;93521.72;;;11.40;56.78
58879;BME280;44660;42.664;23.266;2023-04-01T03:50:40;93515.38;;;11.21;56.28
58879;BME280;44660;42.664;23.266;2023-04-01T03:53:06;93479.28;;;10.99;57.17
58879;BME280;44660;42.664;23.266;2023-04-01T03:55:32;93469.19;;;10.96;56.50
58879;BME280;44660;42.664;23.266;2023-04-01T03:57:57;93495.75;;;11.06;57.05
58879;BME280;44660;42.664;23.266;2023-04-01T04:00:23;93479.88;;;10.81;56.65
58879;BME280;44660;42.664;23.266;2023-04-01T04:02:48;93481.44;;;10.92;56.40
58879;BME280;44660;42.664;23.266;2023-04-01T04:05:14;93444.00;;;10.62;56.57
58879;BME280;44660;42.664;23.266;2023-04-01T04:07:40;93452.78;;;10.58;56.38
58879;BME280;44660;42.664;23.266;2023-04-01T04:10:06;93467.69;;;10.64;55.26
58879;BME280;44660;42.664;23.266;2023-04-01T04:12:31;93447.41;;;10.84;54.75
58879;BME280;44660;42.664;23.266;2023-04-01T04:14:57;93462.00;;;10.91;55.22
58879;BME280;44660;42.664;23.266;2023-04-01T04:17:22;93456.94;;;10.95;55.21
58879;BME280;44660;42.664;23.266;2023-04-01T04:19:48;93463.03;;;11.01;55.63
58879;BME280;44660;42.664;23.266;2023-04-01T04:22:14;93448.72;;;10.86;55.88
58879;BME280;44660;42.664;23.266;2023-04-01T04:24:39;93461.16;;;11.11;55.93
58879;BME280;44660;42.664;23.266;2023-04-01T04:27:04;93431.94;;;11.01;56.25
58879;BME280;44660;42.664;23.266;2023-04-01T04:29:30;93385.22;;;10.74;56.25
58879;BME280;44660;42.664;23.266;2023-04-01T04:31:56;93459.81;;;11.14;56.54
58879;BME280;44660;42.664;23.266;2023-04-01T04:34:21;93448.38;;;11.14;56.34
58879;BME280;44660;42.664;23.266;2023-04-01T04:36:48;93422.41;;;10.90;56.73
58879;BME280;44660;42.664;23.266;2023-04-01T04:39:14;93438.88;;;10.92;57.30
58879;BME280;44660;42.664;23.266;2023-04-01T04:41:40;93448.41;;;10.98;57.69
58879;BME280;44660;42.664;23.266;2023-04-01T04:44:05;93406.94;;;10.97;57.47
58879;BME280;44660;42.664;23.266;2023-04-01T04:46:31;93421.34;;;10.86;58.18
58879;BME280;44660;42.664;23.266;2023-04-01T04:48:56;93413.88;;;10.88;57.59
58879;BME280;44660;42.664;23.266;2023-04-01T04:51:22;93406.94;;;10.97;57.89
58879;BME280;44660;42.664;23.266;2023-04-01T04:53:48;93433.47;;;11.18;57.38
58879;BME280;44660;42.664;23.266;2023-04-01T04:56:17;93412.16;;;11.18;56.90
58879;BME280;44660;42.664;23.266;2023-04-01T04:58:43;93416.13;;;11.25;57.00
58879;BME280;44660;42.664;23.266;2023-04-01T05:01:10;93418.22;;;11.28;57.53
58879;BME280;44660;42.664;23.266;2023-04-01T05:03:36;93419.63;;;11.16;57.20
58879;BME280;44660;42.664;23.266;2023-04-01T05:06:02;93332.88;;;10.70;56.28
58879;BME280;44660;42.664;23.266;2023-04-01T05:08:27;93380.34;;;10.97;57.09
58879;BME280;44660;42.664;23.266;2023-04-01T05:10:53;93399.75;;;10.98;56.20
58879;BME280;44660;42.664;23.266;2023-04-01T05:13:18;93387.75;;;11.05;55.78
58879;BME280;44660;42.664;23.266;2023-04-01T05:15:44;93405.09;;;10.92;55.85
58879;BME280;44660;42.664;23.266;2023-04-01T05:18:09;93371.34;;;10.88;55.73
58879;BME280;44660;42.664;23.266;2023-04-01T05:20:35;93384.69;;;10.72;56.31
58879;BME280;44660;42.664;23.266;2023-04-01T05:23:00;93351.22;;;10.66;56.33
58879;BME280;44660;42.664;23.266;2023-04-01T05:25:26;93374.53;;;10.90;55.76
58879;BME280;44660;42.664;23.266;2023-04-01T05:27:52;93359.09;;;10.87;55.39
58879;BME280;44660;42.664;23.266;2023-04-01T05:30:17;93382.78;;;10.88;55.15
58879;BME280;44660;42.664;23.266;2023-04-01T05:32:43;93371.34;;;10.88;55.35
58879;BME280;44660;42.664;23.266;2023-04-01T05:35:09;93358.94;;;10.62;55.39
58879;BME280;44660;42.664;23.266;2023-04-01T05:37:35;93369.31;;;10.69;55.90
58879;BME280;44660;42.664;23.266;2023-04-01T05:40:01;93352.84;;;10.57;55.60
58879;BME280;44660;42.664;23.266;2023-04-01T05:42:27;93391.00;;;10.97;55.15
58879;BME280;44660;42.664;23.266;2023-04-01T05:44:52;93355.66;;;10.86;54.83
58879;BME280;44660;42.664;23.266;2023-04-01T05:47:18;93376.56;;;11.03;54.55
58879;BME280;44660;42.664;23.266;2023-04-01T05:49:43;93364.13;;;10.99;53.95
58879;BME280;44660;42.664;23.266;2023-04-01T05:52:09;93355.31;;;10.98;54.67
58879;BME280;44660;42.664;23.266;2023-04-01T05:54:34;93371.84;;;10.95;54.96
58879;BME280;44660;42.664;23.266;2023-04-01T05:57:00;93367.75;;;11.13;53.92
58879;BME280;44660;42.664;23.266;2023-04-01T05:59:25;93343.59;;;11.04;53.75
58879;BME280;44660;42.664;23.266;2023-04-01T06:01:51;93305.06;;;10.97;53.49
58879;BME280;44660;42.664;23.266;2023-04-01T06:04:17;93345.00;;;11.36;52.84
58879;BME280;44660;42.664;23.266;2023-04-01T06:06:43;93323.72;;;11.36;52.03
58879;BME280;44660;42.664;23.266;2023-04-01T06:31:12;93347.28;;;12.95;47.31
58879;BME280;44660;42.664;23.266;2023-04-01T06:39:42;93329.06;;;13.41;47.04
58879;BME280;44660;42.664;23.266;2023-04-01T06:42:22;93317.91;;;13.38;47.06
58879;BME280;44660;42.664;23.266;2023-04-01T06:55:51;93283.28;;;13.66;44.87
58879;BME280;44660;42.664;23.266;2023-04-01T06:58:24;93300.13;;;13.81;44.52
58879;BME280;44660;42.664;23.266;2023-04-01T07:00:54;93299.00;;;14.01;44.41
58879;BME280;44660;42.664;23.266;2023-04-01T07:03:29;93311.88;;;14.13;44.76
58879;BME280;44660;42.664;23.266;2023-04-01T07:06:04;93332.09;;;14.19;45.19
58879;BME280;44660;42.664;23.266;2023-04-01T07:08:33;93314.88;;;14.25;44.31
58879;BME280;44660;42.664;23.266;2023-04-01T07:11:02;93299.53;;;14.31;43.53
58879;BME280;44660;42.664;23.266;2023-04-01T07:13:46;93291.50;;;14.45;43.00
58879;BME280;44660;42.664;23.266;2023-04-01T07:16:34;93297.00;;;14.67;43.10
58879;BME280;44660;42.664;23.266;2023-04-01T07:21:44;93324.22;;;14.97;42.44
58879;BME280;44660;42.664;23.266;2023-04-01T07:24:25;93335.88;;;15.29;42.37
58879;BME280;44660;42.664;23.266;2023-04-01T07:26:54;93294.44;;;15.13;42.44
58879;BME280;44660;42.664;23.266;2023-04-01T07:29:21;93302.25;;;15.23;42.09
58879;BME280;44660;42.664;23.266;2023-04-01T07:40:04;93317.72;;;17.55;36.97
58879;BME280;44660;42.664;23.266;2023-04-01T07:42:58;93286.09;;;17.17;37.88
58879;BME280;44660;42.664;23.266;2023-04-01T07:45:38;93292.28;;;16.69;38.33
58879;BME280;44660;42.664;23.266;2023-04-01T07:56:37;93295.13;;;16.00;40.91
58879;BME280;44660;42.664;23.266;2023-04-01T07:59:36;93296.22;;;15.99;41.34
58879;BME280;44660;42.664;23.266;2023-04-01T08:04:53;93294.41;;;15.86;40.80
58879;BME280;44660;42.664;23.266;2023-04-01T08:10:22;93214.22;;;15.98;40.95
58879;BME280;44660;42.664;23.266;2023-04-01T08:15:35;93269.38;;;16.62;40.52
58879;BME280;44660;42.664;23.266;2023-04-01T08:18:15;93242.97;;;16.47;39.89
58879;BME280;44660;42.664;23.266;2023-04-01T08:20:48;93241.84;;;16.39;40.60
58879;BME280;44660;42.664;23.266;2023-04-01T08:23:37;93210.25;;;16.36;41.25
58879;BME280;44660;42.664;23.266;2023-04-01T08:26:08;93244.06;;;16.46;41.26
58879;BME280;44660;42.664;23.266;2023-04-01T08:33:53;93176.47;;;20.50;33.82
58879;BME280;44660;42.664;23.266;2023-04-01T08:36:36;93146.28;;;21.99;30.76
58879;BME280;44660;42.664;23.266;2023-04-01T08:39:07;93170.34;;;23.59;29.51
58879;BME280;44660;42.664;23.266;2023-04-01T08:44:37;93140.44;;;27.85;23.58
58879;BME280;44660;42.664;23.266;2023-04-01T08:50:31;93120.53;;;29.26;20.93
58879;BME280;44660;42.664;23.266;2023-04-01T08:59:09;93143.06;;;27.46;22.15
58879;BME280;44660;42.664;23.266;2023-04-01T09:02:25;93158.34;;;26.01;23.91
58879;BME280;44660;42.664;23.266;2023-04-01T09:19:04;93139.22;;;22.42;28.47
58879;BME280;44660;42.664;23.266;2023-04-01T09:21:41;93139.63;;;21.80;29.63
58879;BME280;44660;42.664;23.266;2023-04-01T09:27:29;93133.44;;;20.95;30.51
58879;BME280;44660;42.664;23.266;2023-04-01T09:38:49;93108.91;;;20.34;27.01
58879;BME280;44660;42.664;23.266;2023-04-01T09:41:36;93094.69;;;20.50;26.00
58879;BME280;44660;42.664;23.266;2023-04-01T09:44:36;93092.06;;;20.78;25.89
58879;BME280;44660;42.664;23.266;2023-04-01T09:52:59;93072.97;;;21.72;25.21
58879;BME280;44660;42.664;23.266;2023-04-01T10:12:49;93037.94;;;22.82;23.91
58879;BME280;44660;42.664;23.266;2023-04-01T10:17:43;93033.44;;;22.90;24.87
58879;BME280;44660;42.664;23.266;2023-04-01T10:20:39;93040.09;;;22.73;26.00
58879;BME280;44660;42.664;23.266;2023-04-01T10:36:57;93007.41;;;22.11;25.24
58879;BME280;44660;42.664;23.266;2023-04-01T10:53:37;92986.88;;;21.74;24.56
58879;BME280;44660;42.664;23.266;2023-04-01T10:56:36;92982.88;;;21.68;24.64
58879;BME280;44660;42.664;23.266;2023-04-01T11:02:36;92977.78;;;21.50;25.02
58879;BME280;44660;42.664;23.266;2023-04-01T11:10:57;92973.19;;;20.91;26.05
58879;BME280;44660;42.664;23.266;2023-04-01T11:16:37;92966.66;;;20.22;27.60
58879;BME280;44660;42.664;23.266;2023-04-01T11:33:38;93036.84;;;18.18;34.09
58879;BME280;44660;42.664;23.266;2023-04-01T11:36:19;93083.72;;;18.38;34.50
58879;BME280;44660;42.664;23.266;2023-04-01T11:41:48;93134.88;;;17.34;39.15
58879;BME280;44660;42.664;23.266;2023-04-01T11:44:26;93151.31;;;16.71;42.61
58879;BME280;44660;42.664;23.266;2023-04-01T12:00:25;93276.19;;;14.64;57.26
58879;BME280;44660;42.664;23.266;2023-04-01T12:03:16;93185.59;;;13.93;58.24
58879;BME280;44660;42.664;23.266;2023-04-01T12:05:54;93246.06;;;14.17;58.92
58879;BME280;44660;42.664;23.266;2023-04-01T12:08:36;93259.81;;;14.24;59.68
58879;BME280;44660;42.664;23.266;2023-04-01T12:14:21;93247.53;;;14.23;60.87
58879;BME280;44660;42.664;23.266;2023-04-01T12:17:09;93244.50;;;14.44;61.32
58879;BME280;44660;42.664;23.266;2023-04-01T12:28:39;93246.66;;;14.42;58.65
58879;BME280;44660;42.664;23.266;2023-04-01T12:31:19;93242.19;;;14.37;59.09
58879;BME280;44660;42.664;23.266;2023-04-01T12:34:21;93256.38;;;14.37;59.99
58879;BME280;44660;42.664;23.266;2023-04-01T12:39:44;93254.09;;;14.03;59.62
58879;BME280;44660;42.664;23.266;2023-04-01T12:45:27;93211.50;;;13.46;59.95
58879;BME280;44660;42.664;23.266;2023-04-01T12:56:35;93196.22;;;13.32;60.73
58879;BME280;44660;42.664;23.266;2023-04-01T13:05:01;93203.47;;;12.94;60.66
58879;BME280;44660;42.664;23.266;2023-04-01T13:10:25;93182.88;;;12.99;59.63
58879;BME280;44660;42.664;23.266;2023-04-01T13:13:29;93145.06;;;13.11;60.07
58879;BME280;44660;42.664;23.266;2023-04-01T13:15:54;93116.19;;;12.99;59.62
58879;BME280;44660;42.664;23.266;2023-04-01T13:32:43;93154.09;;;12.96;56.14
58879;BME280;44660;42.664;23.266;2023-04-01T13:35:53;93140.75;;;12.96;55.91
58879;BME280;44660;42.664;23.266;2023-04-01T13:44:02;93109.38;;;13.07;53.08
58879;BME280;44660;42.664;23.266;2023-04-01T13:52:17;93094.34;;;13.58;49.77
58879;BME280;44660;42.664;23.266;2023-04-01T13:58:02;93079.13;;;13.73;49.92
58879;BME280;44660;42.664;23.266;2023-04-01T14:17:27;93040.56;;;14.15;46.10
58879;BME280;44660;42.664;23.266;2023-04-01T14:28:11;93033.03;;;14.77;44.54
58879;BME280;44660;42.664;23.266;2023-04-01T14:31:15;93011.13;;;14.75;45.26
58879;BME280;44660;42.664;23.266;2023-04-01T14:34:03;93026.41;;;15.06;44.94
58879;BME280;44660;42.664;23.266;2023-04-01T14:37:17;92972.47;;;14.81;43.73
58879;BME280;44660;42.664;23.266;2023-04-01T14:42:59;93010.72;;;15.13;42.99
58879;BME280;44660;42.664;23.266;2023-04-01T14:48:38;92994.56;;;15.27;40.80
58879;BME280;44660;42.664;23.266;2023-04-01T14:51:13;93020.94;;;15.51;40.94
58879;BME280;44660;42.664;23.266;2023-04-01T14:54:38;92979.63;;;15.34;42.22
58879;BME280;44660;42.664;23.266;2023-04-01T14:57:01;93013.66;;;15.92;41.51
58879;BME280;44660;42.664;23.266;2023-04-01T14:59:28;93024.53;;;15.95;41.55
58879;BME280;44660;42.664;23.266;2023-04-01T15:02:24;93027.41;;;16.08;41.43
58879;BME280;44660;42.664;23.266;2023-04-01T15:05:07;93003.03;;;15.78;40.95
58879;BME280;44660;42.664;23.266;2023-04-01T15:16:02;93052.97;;;15.65;41.62
58879;BME280;44660;42.664;23.266;2023-04-01T15:24:21;93065.66;;;15.42;43.46
58879;BME280;44660;42.664;23.266;2023-04-01T15:27:05;93071.47;;;15.35;43.12
58879;BME280;44660;42.664;23.266;2023-04-01T15:43:31;93075.34;;;14.97;44.20
58879;BME280;44660;42.664;23.266;2023-04-01T15:51:11;93255.28;;;14.11;49.33
58879;BME280;44660;42.664;23.266;2023-04-01T16:05:13;93331.66;;;10.97;62.84
58879;BME280;44660;42.664;23.266;2023-04-01T16:07:58;93344.31;;;10.60;65.24
58879;BME280;44660;42.664;23.266;2023-04-01T16:10:47;93310.19;;;10.07;65.92
58879;BME280;44660;42.664;23.266;2023-04-01T16:16:07;93373.91;;;10.22;67.71
58879;BME280;44660;42.664;23.266;2023-04-01T16:21:12;93375.81;;;9.60;68.32
58879;BME280;44660;42.664;23.266;2023-04-01T16:23:51;93315.00;;;9.17;68.67
58879;BME280;44660;42.664;23.266;2023-04-01T16:26:37;93381.91;;;9.60;68.02
58879;BME280;44660;42.664;23.266;2023-04-01T16:29:24;93302.81;;;9.26;67.21
58879;BME280;44660;42.664;23.266;2023-04-01T16:35:20;93404.97;;;9.50;68.68
58879;BME280;44660;42.664;23.266;2023-04-01T16:38:03;93397.78;;;9.24;68.78
58879;BME280;44660;42.664;23.266;2023-04-01T16:46:25;93424.03;;;9.26;69.92
58879;BME280;44660;42.664;23.266;2023-04-01T16:57:20;93432.31;;;9.45;68.50
58879;BME280;44660;42.664;23.266;2023-04-01T17:00:17;93374.09;;;8.97;67.51
58879;BME280;44660;42.664;23.266;2023-04-01T17:03:11;93433.84;;;9.36;69.10
58879;BME280;44660;42.664;23.266;2023-04-01T17:11:19;93441.03;;;9.45;68.03
58879;BME280;44660;42.664;23.266;2023-04-01T17:16:51;93456.22;;;9.66;67.85
58879;BME280;44660;42.664;23.266;2023-04-01T17:22:13;93416.88;;;9.42;66.27
58879;BME280;44660;42.664;23.266;2023-04-01T17:24:53;93458.09;;;9.65;66.25
58879;BME280;44660;42.664;23.266;2023-04-01T17:30:33;93396.19;;;9.34;67.88
58879;BME280;44660;42.664;23.266;2023-04-01T17:36:08;93427.00;;;9.45;66.55
58879;BME280;44660;42.664;23.266;2023-04-01T17:41:36;93458.09;;;9.65;66.87
58879;BME280;44660;42.664;23.266;2023-04-01T17:44:45;93467.59;;;9.56;66.71
58879;BME280;44660;42.664;23.266;2023-04-01T17:47:31;93454.88;;;9.53;66.74
58879;BME280;44660;42.664;23.266;2023-04-01T17:58:19;93428.69;;;8.93;65.11
58879;BME280;44660;42.664;23.266;2023-04-01T18:01:19;93475.44;;;9.14;65.45
58879;BME280;44660;42.664;23.266;2023-04-01T18:17:52;93512.09;;;9.28;64.57
58879;BME280;44660;42.664;23.266;2023-04-01T18:20:42;93516.03;;;9.20;64.86
58879;BME280;44660;42.664;23.266;2023-04-01T18:23:35;93522.69;;;9.28;64.14
58879;BME280;44660;42.664;23.266;2023-04-01T18:26:05;93524.34;;;9.39;64.11
58879;BME280;44660;42.664;23.266;2023-04-01T18:28:42;93526.16;;;9.23;64.14
58879;BME280;44660;42.664;23.266;2023-04-01T18:31:18;93526.31;;;9.06;63.54
58879;BME280;44660;42.664;23.266;2023-04-01T18:36:47;93536.22;;;9.21;64.25
58879;BME280;44660;42.664;23.266;2023-04-01T18:39:35;93530.50;;;8.97;63.71
58879;BME280;44660;42.664;23.266;2023-04-01T18:42:33;93539.50;;;8.91;64.51
58879;BME280;44660;42.664;23.266;2023-04-01T18:45:23;93533.63;;;8.89;64.66
58879;BME280;44660;42.664;23.266;2023-04-01T18:48:06;93494.31;;;8.70;64.52
58879;BME280;44660;42.664;23.266;2023-04-01T18:50:37;93529.41;;;8.88;64.72
58879;BME280;44660;42.664;23.266;2023-04-01T18:53:44;93490.06;;;8.69;64.71
58879;BME280;44660;42.664;23.266;2023-04-01T18:56:32;93536.34;;;8.94;64.00
58879;BME280;44660;42.664;23.266;2023-04-01T18:59:10;93463.38;;;8.38;63.93
58879;BME280;44660;42.664;23.266;2023-04-01T19:01:42;93541.34;;;8.85;64.39
58879;BME280;44660;42.664;23.266;2023-04-01T19:04:45;93538.94;;;8.89;64.23
58879;BME280;44660;42.664;23.266;2023-04-01T19:15:57;93463.22;;;8.23;63.97
58879;BME280;44660;42.664;23.266;2023-04-01T19:23:47;93580.28;;;8.85;62.77
58879;BME280;44660;42.664;23.266;2023-04-01T19:37:11;93570.41;;;9.18;62.92
58879;BME280;44660;42.664;23.266;2023-04-01T19:42:39;93608.09;;;9.25;62.76
58879;BME280;44660;42.664;23.266;2023-04-01T19:48:02;93614.34;;;9.03;64.01
58879;BME280;44660;42.664;23.266;2023-04-01T19:59:10;93609.69;;;9.21;62.18
58879;BME280;44660;42.664;23.266;2023-04-01T20:04:30;93610.72;;;9.20;60.53
58879;BME280;44660;42.664;23.266;2023-04-01T20:09:48;93594.06;;;9.24;60.08
58879;BME280;44660;42.664;23.266;2023-04-01T20:14:58;93544.78;;;8.91;59.66
58879;BME280;44660;42.664;23.266;2023-04-01T20:17:42;93554.81;;;8.83;58.97
58879;BME280;44660;42.664;23.266;2023-04-01T20:25:19;93597.16;;;8.73;59.46
58879;BME280;44660;42.664;23.266;2023-04-01T20:30:40;93595.41;;;8.52;60.75
58879;BME280;44660;42.664;23.266;2023-04-01T20:36:20;93608.66;;;8.24;62.00
58879;BME280;44660;42.664;23.266;2023-04-01T20:46:42;93600.59;;;7.87;63.01
58879;BME280;44660;42.664;23.266;2023-04-01T20:57:11;93559.81;;;7.60;62.97
58879;BME280;44660;42.664;23.266;2023-04-01T21:02:54;93610.09;;;7.82;62.39
58879;BME280;44660;42.664;23.266;2023-04-01T21:24:45;93623.09;;;8.11;58.94
58879;BME280;44660;42.664;23.266;2023-04-01T21:27:42;93626.13;;;7.98;59.26
58879;BME280;44660;42.664;23.266;2023-04-01T21:33:20;93630.06;;;8.23;58.27
58879;BME280;44660;42.664;23.266;2023-04-01T22:00:38;93611.72;;;8.71;58.20
58879;BME280;44660;42.664;23.266;2023-04-01T22:03:31;93634.31;;;8.78;57.60
58879;BME280;44660;42.664;23.266;2023-04-01T22:12:45;93632.97;;;8.76;57.73
58879;BME280;44660;42.664;23.266;2023-04-01T22:18:23;93612.38;;;8.56;55.82
58879;BME280;44660;42.664;23.266;2023-04-01T22:26:40;93613.28;;;8.39;56.88
58879;BME280;44660;42.664;23.266;2023-04-01T22:31:51;93517.94;;;7.52;57.07
58879;BME280;44660;42.664;23.266;2023-04-01T22:34:42;93617.34;;;8.20;56.97
58879;BME280;44660;42.664;23.266;2023-04-01T22:42:45;93584.72;;;7.87;56.91
58879;BME280;44660;42.664;23.266;2023-04-01T22:47:44;93634.78;;;8.15;56.69
58879;BME280;44660;42.664;23.266;2023-04-01T22:52:45;93599.38;;;7.72;56.05
58879;BME280;44660;42.664;23.266;2023-04-01T22:55:28;93642.22;;;7.91;56.51
58879;BME280;44660;42.664;23.266;2023-04-01T23:00:32;93647.88;;;8.00;56.15
58879;BME280;44660;42.664;23.266;2023-04-01T23:03:16;93659.00;;;8.02;56.15
58879;BME280;44660;42.664;23.266;2023-04-01T23:05:50;93659.00;;;8.02;56.29
58879;BME280;44660;42.664;23.266;2023-04-01T23:11:19;93622.50;;;7.82;56.79
58879;BME280;44660;42.664;23.266;2023-04-01T23:14:02;93624.34;;;7.81;56.81
58879;BME280;44660;42.664;23.266;2023-04-01T23:16:39;93615.00;;;7.74;56.60